createdAt,value
2023-01-11T00:00:19.034Z,6.59
2023-01-11T00:05:20.609Z,6.65
2023-01-11T00:10:22.642Z,6.69
2023-01-11T00:15:24.219Z,6.71
2023-01-11T00:20:25.980Z,6.81
2023-01-11T00:25:27.852Z,6.82
2023-01-11T00:30:29.514Z,6.88
2023-01-11T00:35:32.370Z,6.88
2023-01-11T00:40:33.961Z,7.02
2023-01-11T00:45:54.286Z,7.00
2023-01-11T00:50:57.323Z,7.04
2023-01-11T00:55:58.916Z,7.10
2023-01-11T01:01:06.568Z,7.02
2023-01-11T01:06:08.216Z,7.03
2023-01-11T01:11:09.918Z,7.10
2023-01-11T01:16:11.500Z,7.13
2023-01-11T01:21:13.085Z,7.12
2023-01-11T01:26:14.653Z,7.20
2023-01-11T01:31:17.335Z,7.16
2023-01-11T01:36:18.922Z,7.11
2023-01-11T01:41:20.803Z,7.01
2023-01-11T01:46:26.519Z,6.85
2023-01-11T01:51:38.708Z,6.64
2023-01-11T01:56:46.606Z,6.67
2023-01-11T02:01:49.875Z,6.76
2023-01-11T02:07:16.305Z,6.79
2023-01-11T02:12:18.787Z,6.94
2023-01-11T02:17:21.666Z,6.98
2023-01-11T02:22:41.690Z,7.10
2023-01-11T02:28:10.911Z,7.03
2023-01-11T02:33:50.954Z,7.11
2023-01-11T02:39:05.918Z,7.12
2023-01-11T02:44:32.810Z,7.26
2023-01-11T02:49:46.945Z,7.36
2023-01-11T02:54:55.705Z,7.39
2023-01-11T02:59:58.385Z,7.40
2023-01-11T03:04:59.967Z,7.46
2023-01-11T03:10:32.789Z,7.42
2023-01-11T03:15:57.225Z,7.57
2023-01-11T03:21:07.803Z,7.57
2023-01-11T03:26:15.462Z,7.65
2023-01-11T03:31:38.632Z,7.61
2023-01-11T03:36:57.728Z,7.58
2023-01-11T03:42:02.139Z,7.72
2023-01-11T03:47:09.461Z,7.83
2023-01-11T03:52:15.927Z,7.82
2023-01-11T03:57:23.724Z,7.86
2023-01-11T04:02:27.489Z,7.91
2023-01-11T04:07:29.437Z,7.91
2023-01-11T04:12:31.025Z,7.92
2023-01-11T04:17:32.606Z,7.96
2023-01-11T04:22:34.180Z,8.04
2023-01-11T04:27:35.907Z,8.15
2023-01-11T04:32:37.482Z,8.11
2023-01-11T04:37:39.107Z,8.12
2023-01-11T04:42:40.691Z,8.14
2023-01-11T04:47:42.431Z,8.17
2023-01-11T04:52:43.981Z,8.23
2023-01-11T04:57:46.611Z,8.26
2023-01-11T05:02:48.205Z,8.42
2023-01-11T05:07:49.777Z,8.41
2023-01-11T05:12:51.495Z,8.51
2023-01-11T05:17:53.076Z,8.49
2023-01-11T05:22:54.691Z,8.55
2023-01-11T05:27:56.335Z,8.64
2023-01-11T05:32:57.925Z,8.69
2023-01-11T05:37:59.544Z,8.69
2023-01-11T05:43:01.166Z,8.63
2023-01-11T05:48:02.806Z,8.77
2023-01-11T05:53:04.414Z,8.74
2023-01-11T05:58:06.856Z,8.76
2023-01-11T06:03:08.537Z,8.68
2023-01-11T06:08:10.376Z,8.82
2023-01-11T06:13:27.108Z,8.85
2023-01-11T06:18:31.285Z,8.83
2023-01-11T06:23:34.624Z,8.81
2023-01-11T06:28:37.211Z,8.80
2023-01-11T06:33:38.902Z,8.76
2023-01-11T06:38:41.371Z,8.84
2023-01-11T06:43:43.054Z,8.86
2023-01-11T06:48:45.038Z,8.92
2023-01-11T06:53:46.631Z,8.89
2023-01-11T06:58:48.637Z,8.86
2023-01-11T07:03:50.435Z,8.77
2023-01-11T07:08:52.021Z,8.78
2023-01-11T07:13:53.609Z,8.73
2023-01-11T07:18:55.240Z,8.78
2023-01-11T07:23:56.822Z,8.81
2023-01-11T07:28:58.635Z,8.88
2023-01-11T07:34:00.224Z,8.82
2023-01-11T07:39:01.964Z,8.87
2023-01-11T07:44:03.970Z,8.87
2023-01-11T07:49:05.896Z,8.86
2023-01-11T07:54:07.687Z,8.90
2023-01-11T07:59:09.632Z,8.82
2023-01-11T08:04:12.740Z,8.80
2023-01-11T08:09:14.614Z,8.75
2023-01-11T08:14:35.086Z,8.82
2023-01-11T08:19:36.956Z,8.76
2023-01-11T08:24:38.584Z,8.88
2023-01-11T08:29:44.023Z,8.89
2023-01-11T08:34:45.717Z,8.96
2023-01-11T08:39:48.610Z,8.92
2023-01-11T08:44:50.236Z,8.96
2023-01-11T08:49:52.013Z,9.01
2023-01-11T08:54:53.719Z,8.93
2023-01-11T08:59:55.401Z,8.99
2023-01-11T09:04:56.997Z,8.94
2023-01-11T09:09:58.626Z,9.03
2023-01-11T09:15:00.422Z,9.09
2023-01-11T09:20:02.171Z,9.08
2023-01-11T09:25:04.319Z,9.01
2023-01-11T09:30:06.445Z,8.96
2023-01-11T09:35:08.944Z,9.06
2023-01-11T09:40:19.160Z,8.95
2023-01-11T09:45:24.084Z,9.07
2023-01-11T09:50:31.122Z,9.17
2023-01-11T09:55:39.294Z,9.15
2023-01-11T10:01:01.164Z,8.98
2023-01-11T10:06:19.675Z,9.09
2023-01-11T10:18:26.729Z,9.05
2023-01-11T10:22:39.633Z,9.12
2023-01-11T10:27:56.961Z,9.27
2023-01-11T10:33:24.327Z,9.53
2023-01-11T10:39:13.452Z,9.57
2023-01-11T10:44:23.569Z,9.85
2023-01-11T10:49:25.903Z,9.97
2023-01-11T10:54:33.332Z,10.01
2023-01-11T10:59:38.239Z,10.04
2023-01-11T11:04:55.134Z,10.17
2023-01-11T11:10:14.676Z,10.19
2023-01-11T11:16:07.916Z,10.20
2023-01-11T11:21:28.578Z,10.23
2023-01-11T11:26:37.500Z,10.32
2023-01-11T11:31:44.213Z,10.40
2023-01-11T11:36:49.144Z,10.49
2023-01-11T11:41:53.355Z,10.57
2023-01-11T11:47:08.135Z,10.45
2023-01-11T11:52:16.604Z,10.30
2023-01-11T11:57:31.765Z,10.22
2023-01-11T12:02:37.341Z,10.38
2023-01-11T12:07:55.231Z,10.31
2023-01-11T12:13:00.616Z,10.48
2023-01-11T12:18:37.540Z,10.49
2023-01-11T12:23:40.995Z,10.48
2023-01-11T12:29:01.185Z,10.51
2023-01-11T12:34:21.127Z,10.47
2023-01-11T12:39:44.363Z,10.63
2023-01-11T12:44:54.067Z,10.55
2023-01-11T12:50:21.786Z,10.45
2023-01-11T12:55:41.697Z,10.54
2023-01-11T13:00:43.247Z,10.54
2023-01-11T13:05:56.593Z,10.41
2023-01-11T13:11:35.487Z,10.33
2023-01-11T13:16:55.071Z,10.27
2023-01-11T13:21:58.663Z,10.19
2023-01-11T13:27:04.380Z,10.07
2023-01-11T13:32:12.793Z,9.99
2023-01-11T13:37:22.815Z,9.95
2023-01-11T13:42:47.558Z,9.82
2023-01-11T13:47:55.773Z,9.91
2023-01-11T13:53:36.290Z,9.79
2023-01-11T13:58:49.401Z,9.76
2023-01-11T14:04:05.225Z,9.77
2023-01-11T14:09:21.065Z,9.77
2023-01-11T14:14:36.525Z,9.68
2023-01-11T14:19:50.844Z,9.57
2023-01-11T14:25:15.305Z,9.39
2023-01-11T14:30:52.245Z,9.33
2023-01-11T14:36:12.648Z,9.18
2023-01-11T14:41:42.251Z,9.13
2023-01-11T14:47:02.069Z,9.07
2023-01-11T14:52:10.557Z,8.92
2023-01-11T14:57:35.979Z,8.74
2023-01-11T15:02:37.566Z,8.81
2023-01-11T15:07:41.621Z,8.77
2023-01-11T15:12:43.235Z,8.86
2023-01-11T15:18:04.384Z,8.81
2023-01-11T15:23:06.270Z,8.68
2023-01-11T15:28:32.796Z,8.43
2023-01-11T15:33:48.688Z,8.36
2023-01-11T15:39:00.793Z,8.34
2023-01-11T15:44:29.825Z,8.20
2023-01-11T15:50:13.534Z,8.17
2023-01-11T15:55:48.435Z,8.18
2023-01-11T16:01:08.867Z,8.23
2023-01-11T16:06:21.377Z,8.18
2023-01-11T16:11:41.487Z,8.14
2023-01-11T16:16:44.203Z,8.15
2023-01-11T16:21:49.759Z,7.99
2023-01-11T16:27:01.219Z,7.93
2023-01-11T16:32:17.636Z,7.85
2023-01-11T16:37:29.809Z,7.69
2023-01-11T16:42:37.040Z,7.62
2023-01-11T16:47:38.810Z,7.57
2023-01-11T16:52:53.294Z,7.63
2023-01-11T16:57:58.603Z,7.47
2023-01-11T17:03:03.087Z,7.39
2023-01-11T17:08:34.893Z,7.23
2023-01-11T17:13:54.856Z,6.99
2023-01-11T17:19:02.457Z,7.19
2023-01-11T17:24:06.588Z,7.07
2023-01-11T17:29:08.781Z,7.05
2023-01-11T17:34:16.805Z,7.00
2023-01-11T17:39:32.421Z,6.99
2023-01-11T17:44:53.485Z,6.94
2023-01-11T17:49:56.605Z,6.90
2023-01-11T17:55:19.235Z,6.84
2023-01-11T18:00:28.874Z,6.78
2023-01-11T18:05:30.658Z,6.83
2023-01-11T18:10:37.349Z,6.85
2023-01-11T18:15:39.039Z,6.75
2023-01-11T18:20:42.675Z,6.82
2023-01-11T18:25:46.600Z,6.84
2023-01-11T18:30:54.351Z,6.83
2023-01-11T18:35:59.744Z,6.77
2023-01-11T18:41:26.469Z,6.65
2023-01-11T18:46:28.232Z,6.72
2023-01-11T18:51:36.976Z,6.71
2023-01-11T18:56:38.789Z,6.76
2023-01-11T19:01:54.471Z,6.83
2023-01-11T19:07:01.949Z,6.87
2023-01-11T19:12:03.756Z,6.88
2023-01-11T19:17:05.410Z,6.79
2023-01-11T19:22:07.590Z,6.75
2023-01-11T19:27:09.514Z,6.75
2023-01-11T19:32:11.191Z,6.71
2023-01-11T19:37:12.938Z,6.56
2023-01-11T19:42:14.559Z,6.61
2023-01-11T19:47:16.187Z,6.55
2023-01-11T19:52:20.996Z,6.53
2023-01-11T19:57:22.828Z,6.55
2023-01-11T20:02:24.612Z,6.50
2023-01-11T20:07:26.649Z,6.51
2023-01-11T20:12:28.405Z,6.55
2023-01-11T20:17:30.088Z,6.53
2023-01-11T20:22:31.742Z,6.52
2023-01-11T20:27:34.130Z,6.48
2023-01-11T20:32:42.356Z,6.51
2023-01-11T20:37:44.276Z,6.54
2023-01-11T20:42:45.875Z,6.56
2023-01-11T20:47:47.488Z,6.54
2023-01-11T20:52:49.605Z,6.49
2023-01-11T20:57:51.617Z,6.46
2023-01-11T21:02:53.263Z,6.39
2023-01-11T21:07:54.917Z,6.48
2023-01-11T21:17:59.362Z,6.72
2023-01-11T21:23:01.006Z,6.77
2023-01-11T21:28:03.208Z,6.80
2023-01-11T21:33:04.826Z,6.99
2023-01-11T21:38:06.635Z,7.17
2023-01-11T21:43:08.353Z,7.21
2023-01-11T21:48:10.057Z,7.27
2023-01-11T21:53:11.657Z,7.22
2023-01-11T21:58:13.805Z,7.22
2023-01-11T22:03:15.385Z,7.28
2023-01-11T22:08:16.958Z,7.53
2023-01-11T22:13:18.552Z,7.55
2023-01-11T22:18:22.193Z,7.65
2023-01-11T22:23:24.043Z,7.58
2023-01-11T22:28:25.612Z,7.59
2023-01-11T22:33:27.221Z,7.46
2023-01-11T22:38:28.822Z,7.68
2023-01-11T22:43:30.429Z,7.69
2023-01-11T22:48:32.072Z,7.82
2023-01-11T22:53:42.173Z,7.77
2023-01-11T22:58:43.815Z,7.80
2023-01-11T23:03:46.093Z,7.71
2023-01-11T23:08:48.169Z,7.80
2023-01-11T23:13:52.853Z,7.83
2023-01-11T23:18:54.643Z,7.83
2023-01-11T23:23:56.222Z,7.86
2023-01-11T23:28:58.051Z,7.94
2023-01-11T23:34:00.717Z,8.00
2023-01-11T23:39:03.150Z,7.97
2023-01-11T23:44:07.120Z,7.99
2023-01-11T23:49:10.318Z,8.01
2023-01-11T23:54:12.243Z,8.10
2023-01-11T23:59:14.455Z,8.13
